Mc Alister, New Mexico
Current Conditions -  °F | °C
As of 7:53 AM on Sunday 23 Nov 2014 (Local Time) from KTCC Reporting Station
NA  
Wind Chill: 52°   Ceiling: NA
Heat Index: 52°   Visibility: 10mi
Dew Point: 22°   Wind: 15mph
Humidity: 31%   Direction: 280°W
Pressure: 29.61"   Gusts: 29mph
Location:  34.7422°N, 103.654°W
Report Text: KTCC 231453Z AUTO 28013G25KT 10SM 11/M06 A2961 RMK AO2 PK WND 25027/1435 SLP996 T01111056 53009
Loading
Personal Weather Stations






























Interactive Weather Map New forecast layout! Learn more

10-Day Weather Forecast

Advertisements
Track Severe Weather on mobile